Time;durP1;ratioP1;P1;durP2;ratioP2;P2;SDS_P1;SDS_P2;PMS_P1;PMS_P2;Temp;Humidity;BMP_temperature;BMP_pressure;BME280_temperature;BME280_humidity;BME280_pressure;Samples;Min_cycle;Max_cycle;Signal;HPM_P1;HPM_P2
2023/02/23 00:00:27;;;;;;;14.07;8.80;;;3.00;99.90;4.20;96511.00;;;;5048349;28;20428;-68
2023/02/23 00:03:15;;;;;;;12.80;8.93;;;3.00;99.90;4.10;96504.00;;;;5045190;28;20439;-68
2023/02/23 00:06:06;;;;;;;14.90;9.37;;;3.10;99.90;4.00;96493.00;;;;5037429;28;20429;-67
2023/02/23 00:08:56;;;;;;;11.07;7.27;;;3.20;99.90;4.10;96496.00;;;;5040752;28;20471;-67
2023/02/23 00:11:45;;;;;;;13.97;9.80;;;3.10;99.90;4.30;96504.00;;;;5036372;28;21217;-68
2023/02/23 00:14:37;;;;;;;15.23;8.97;;;3.10;99.90;4.30;96500.00;;;;5045966;28;20931;-68
2023/02/23 00:17:26;;;;;;;15.90;9.13;;;3.20;99.90;4.30;96490.00;;;;5031681;28;20451;-68
2023/02/23 00:20:15;;;;;;;11.77;7.93;;;3.10;99.90;4.20;96487.00;;;;5037528;28;21048;-68
2023/02/23 00:23:05;;;;;;;11.83;7.93;;;3.20;99.90;3.90;96493.00;;;;5042718;28;20443;-67
2023/02/23 00:25:54;;;;;;;12.20;8.47;;;3.10;99.90;3.70;96479.00;;;;5038489;28;20978;-68
2023/02/23 00:28:44;;;;;;;15.50;8.97;;;3.00;99.90;3.50;96474.00;;;;5034018;28;20476;-67
2023/02/23 00:31:33;;;;;;;16.37;8.37;;;2.80;99.90;3.10;96485.00;;;;5043600;28;20439;-67
2023/02/23 00:34:23;;;;;;;14.30;9.00;;;2.70;99.90;3.40;96485.00;;;;5049105;28;20450;-67
2023/02/23 00:37:13;;;;;;;13.47;8.77;;;2.60;99.90;3.60;96490.00;;;;5047957;28;20454;-69
2023/02/23 00:40:04;;;;;;;13.53;9.43;;;2.60;99.90;3.70;96488.00;;;;5038218;28;20450;-67
2023/02/23 00:42:53;;;;;;;14.80;10.50;;;2.50;99.90;3.60;96479.00;;;;5049389;28;20830;-68
2023/02/23 00:45:42;;;;;;;17.73;9.33;;;2.50;99.90;3.60;96485.00;;;;5044831;28;20429;-68
2023/02/23 00:48:31;;;;;;;17.40;10.17;;;2.50;99.90;3.50;96487.00;;;;5043782;28;20466;-68
2023/02/23 00:51:19;;;;;;;13.80;8.77;;;2.60;99.90;3.30;96479.00;;;;5039797;28;20474;-68
2023/02/23 00:54:10;;;;;;;13.47;8.90;;;2.50;99.90;2.90;96479.00;;;;5048803;28;20430;-68
2023/02/23 00:57:00;;;;;;;15.07;9.23;;;2.50;99.90;2.80;96483.00;;;;5048655;28;20507;-68
2023/02/23 00:59:49;;;;;;;18.10;8.70;;;2.40;99.90;3.10;96479.00;;;;5048948;28;20859;-68
2023/02/23 01:02:38;;;;;;;16.07;9.47;;;2.20;99.90;3.30;96473.00;;;;5049301;28;20431;-69
2023/02/23 01:05:26;;;;;;;16.70;9.60;;;2.30;99.90;3.30;96484.00;;;;5049837;28;20961;-68
2023/02/23 01:08:16;;;;;;;13.07;8.60;;;2.20;99.90;3.20;96478.00;;;;5048141;28;20450;-68
2023/02/23 01:11:08;;;;;;;17.30;9.80;;;2.30;99.90;3.20;96474.00;;;;5050152;28;20477;-69
2023/02/23 01:14:01;;;;;;;20.40;10.23;;;2.30;99.90;3.20;96477.00;;;;5049475;28;20486;-69
2023/02/23 01:16:50;;;;;;;11.40;7.37;;;2.40;99.90;2.80;96479.00;;;;5047862;28;20419;-70
2023/02/23 01:19:38;;;;;;;17.23;9.10;;;2.30;99.90;3.00;96477.00;;;;5048145;28;20443;-68
2023/02/23 01:22:27;;;;;;;12.43;9.90;;;2.30;99.90;3.00;96491.00;;;;5043325;28;20493;-69
2023/02/23 01:25:17;;;;;;;18.40;10.70;;;2.40;99.90;3.40;96480.00;;;;5046202;28;20430;-67
2023/02/23 01:28:07;;;;;;;18.37;10.13;;;2.30;99.90;3.50;96470.00;;;;5044640;28;21156;-68
2023/02/23 01:30:57;;;;;;;16.50;9.40;;;2.40;99.90;3.30;96474.00;;;;5027719;28;20427;-68
2023/02/23 01:33:46;;;;;;;9.67;8.20;;;2.40;99.90;3.10;96487.00;;;;5047766;28;20436;-69
2023/02/23 01:36:37;;;;;;;19.83;10.23;;;2.40;99.90;3.40;96463.00;;;;5036503;28;20461;-69
2023/02/23 01:39:27;;;;;;;13.47;9.00;;;2.40;99.90;3.50;96475.00;;;;5029346;28;20471;-68
2023/02/23 01:42:16;;;;;;;18.27;9.97;;;2.50;99.90;3.60;96467.00;;;;5029444;28;20793;-68
2023/02/23 01:45:34;;;;;;;16.27;9.57;;;2.50;99.90;3.50;96469.00;;;;5035380;28;20446;-68
2023/02/23 01:48:27;;;;;;;17.40;11.37;;;2.50;99.90;3.40;96464.00;;;;5040665;28;20463;-68
2023/02/23 01:51:19;;;;;;;13.83;9.83;;;2.50;99.90;3.50;96460.00;;;;5036969;28;20428;-68
2023/02/23 01:54:15;;;;;;;19.03;10.07;;;2.70;99.90;3.70;96453.00;;;;5048234;28;21124;-68
2023/02/23 01:57:06;;;;;;;12.63;8.80;;;2.60;99.90;3.60;96446.00;;;;5046777;28;20432;-68
2023/02/23 01:59:55;;;;;;;20.30;10.00;;;2.50;99.90;3.60;96454.00;;;;5038308;28;20436;-68
2023/02/23 02:02:44;;;;;;;18.17;10.13;;;2.50;99.90;3.40;96455.00;;;;5046552;28;20423;-68
2023/02/23 02:05:37;;;;;;;14.50;9.60;;;2.50;99.90;3.30;96454.00;;;;5050679;28;20469;-69
2023/02/23 02:08:27;;;;;;;20.37;9.70;;;2.50;99.90;3.40;96450.00;;;;5044450;28;20463;-68
2023/02/23 02:11:29;;;;;;;16.63;9.93;;;2.50;99.90;3.20;96447.00;;;;5034323;28;20427;-68
2023/02/23 02:14:22;;;;;;;19.43;10.97;;;2.50;99.90;3.10;96457.00;;;;5042309;28;20434;-69
2023/02/23 02:17:29;;;;;;;14.57;10.80;;;2.30;99.90;3.00;96451.00;;;;5051587;28;20427;-68
2023/02/23 02:21:10;;;;;;;19.53;11.83;;;2.30;99.90;3.10;96443.00;;;;5051259;28;20434;-69
2023/02/23 02:24:48;;;;;;;18.80;11.23;;;2.20;99.90;3.20;96438.00;;;;5052570;28;21114;-68
2023/02/23 02:28:28;;;;;;;14.80;9.70;;;2.20;99.90;3.20;96437.00;;;;5051992;28;20430;-68
2023/02/23 02:31:58;;;;;;;20.33;10.53;;;2.30;99.90;3.00;96451.00;;;;5016828;28;20482;-69
2023/02/23 02:35:44;;;;;;;18.17;11.23;;;2.20;99.90;3.00;96444.00;;;;5042691;28;20422;-68
2023/02/23 02:38:52;;;;;;;13.70;10.40;;;2.20;99.90;3.20;96436.00;;;;5049264;28;20892;-68
2023/02/23 02:41:52;;;;;;;18.27;11.33;;;2.20;99.90;3.00;96449.00;;;;5050929;28;20434;-68
2023/02/23 02:44:50;;;;;;;15.33;11.30;;;2.10;99.90;3.20;96433.00;;;;5045161;28;20460;-68
2023/02/23 02:47:43;;;;;;;16.47;11.87;;;2.10;99.90;3.00;96447.00;;;;5045161;28;20974;-68
2023/02/23 02:50:41;;;;;;;18.47;11.10;;;2.10;99.90;2.80;96446.00;;;;5038874;28;20475;-68
2023/02/23 02:53:44;;;;;;;20.70;10.03;;;2.10;99.90;3.10;96452.00;;;;5045203;28;20964;-68
2023/02/23 02:56:39;;;;;;;16.50;9.10;;;2.00;99.90;3.30;96448.00;;;;5050399;28;20808;-69
2023/02/23 04:19:13;;;;;;;21.70;12.37;;;1.70;99.90;2.80;96471.00;;;;5079247;28;20441;-65
2023/02/23 04:22:01;;;;;;;19.10;12.00;;;1.80;99.90;2.70;96477.00;;;;5090060;28;20421;-67
2023/02/23 04:24:50;;;;;;;17.37;10.30;;;1.70;99.90;2.20;96473.00;;;;5090251;28;20444;-67
2023/02/23 04:27:39;;;;;;;21.07;12.50;;;1.70;99.90;2.40;96489.00;;;;5090254;28;20966;-67
2023/02/23 04:30:29;;;;;;;26.60;13.60;;;1.70;99.90;2.50;96479.00;;;;5075481;28;20468;-67
2023/02/23 04:33:18;;;;;;;21.67;11.60;;;1.60;99.90;2.50;96483.00;;;;5070054;28;20427;-66
2023/02/23 04:36:08;;;;;;;19.47;12.10;;;1.60;99.90;2.90;96475.00;;;;5071484;28;20461;-67
2023/02/23 04:38:56;;;;;;;26.70;11.80;;;1.70;99.90;2.60;96469.00;;;;5070089;28;20445;-67
2023/02/23 04:41:47;;;;;;;24.73;10.77;;;1.80;99.90;2.20;96469.00;;;;5070816;28;20430;-67
2023/02/23 04:44:36;;;;;;;20.03;11.87;;;1.60;99.90;2.10;96471.00;;;;5069356;28;20430;-65
2023/02/23 04:47:26;;;;;;;19.87;11.17;;;1.50;99.90;2.40;96489.00;;;;5068481;28;20441;-67
2023/02/23 04:50:15;;;;;;;18.90;12.20;;;1.50;99.90;2.50;96476.00;;;;5083023;28;21193;-67
2023/02/23 04:53:04;;;;;;;18.87;10.83;;;1.50;99.90;2.40;96473.00;;;;5090523;28;20509;-67
2023/02/23 04:55:53;;;;;;;19.87;11.93;;;1.50;99.90;2.00;96483.00;;;;5090006;28;20944;-67
2023/02/23 04:58:42;;;;;;;21.87;12.27;;;1.50;99.90;2.10;96470.00;;;;5089857;28;20828;-66
2023/02/23 05:01:31;;;;;;;22.03;11.87;;;1.40;99.90;2.30;96485.00;;;;5090319;28;20428;-67
2023/02/23 05:04:21;;;;;;;19.60;11.70;;;1.40;99.90;2.30;96477.00;;;;5090441;28;20430;-67
2023/02/23 05:07:10;;;;;;;20.03;11.23;;;1.40;99.90;2.20;96472.00;;;;5089030;28;20498;-66
2023/02/23 05:09:59;;;;;;;23.40;11.17;;;1.30;99.90;2.00;96466.00;;;;5089794;28;20484;-65
2023/02/23 05:12:47;;;;;;;16.57;11.00;;;1.30;99.90;2.00;96468.00;;;;5090055;28;20471;-67
2023/02/23 05:15:37;;;;;;;22.83;11.30;;;1.20;99.90;2.00;96469.00;;;;5088937;28;20518;-66
2023/02/23 05:18:26;;;;;;;19.57;12.23;;;0.10;99.90;1.50;96471.00;;;;5090455;28;20442;-66
2023/02/23 05:21:16;;;;;;;17.83;10.47;;;1.00;99.90;1.50;96470.00;;;;5089774;28;20857;-65
2023/02/23 05:24:06;;;;;;;18.80;12.37;;;0.90;99.90;2.00;96477.00;;;;5088846;28;20429;-67
2023/02/23 05:26:55;;;;;;;17.80;10.07;;;1.00;99.90;2.10;96485.00;;;;5077749;28;20470;-65
2023/02/23 05:29:44;;;;;;;24.30;13.20;;;1.00;99.90;2.10;96477.00;;;;5072242;28;20442;-67
2023/02/23 05:32:33;;;;;;;23.43;11.53;;;1.10;99.90;2.30;96490.00;;;;5075532;28;20827;-66
2023/02/23 05:35:22;;;;;;;19.37;11.87;;;1.10;99.90;2.30;96493.00;;;;5074526;28;20419;-67
2023/02/23 05:38:12;;;;;;;21.33;12.60;;;1.20;99.90;2.10;96492.00;;;;5079851;28;20425;-66
2023/02/23 05:41:06;;;;;;;18.73;12.43;;;1.20;99.90;1.90;96496.00;;;;5088115;28;21155;-67
2023/02/23 05:43:56;;;;;;;20.77;11.27;;;1.10;99.90;1.90;96497.00;;;;5079760;28;20430;-66
2023/02/23 05:46:46;;;;;;;23.90;12.10;;;1.10;99.90;2.00;96489.00;;;;5075213;28;20973;-67
2023/02/23 05:49:35;;;;;;;21.17;14.00;;;1.10;99.90;1.70;96495.00;;;;5064173;28;20535;-67
2023/02/23 05:52:24;;;;;;;37.40;19.20;;;1.00;99.90;1.80;96495.00;;;;5066110;28;20519;-67
2023/02/23 05:55:14;;;;;;;42.63;20.30;;;1.00;99.90;2.10;96508.00;;;;5072774;28;20423;-66
2023/02/23 05:58:03;;;;;;;54.00;26.43;;;1.10;99.90;2.10;96512.00;;;;5080211;28;20567;-67
2023/02/23 06:00:52;;;;;;;39.53;20.87;;;1.10;99.90;1.80;96511.00;;;;5081948;28;20464;-67
2023/02/23 06:03:41;;;;;;;22.43;14.10;;;1.10;99.90;1.50;96511.00;;;;5090328;28;20443;-66
2023/02/23 06:06:29;;;;;;;24.47;12.47;;;1.00;99.90;1.20;96502.00;;;;5089939;28;20571;-67
2023/02/23 06:09:18;;;;;;;21.23;12.27;;;0.80;99.90;1.10;96513.00;;;;5064227;28;20484;-67
2023/02/23 06:12:09;;;;;;;21.83;13.57;;;0.70;99.90;1.80;96518.00;;;;5073557;28;20546;-67
2023/02/23 06:14:57;;;;;;;25.03;13.00;;;0.80;99.90;2.00;96524.00;;;;5071804;28;20485;-65
2023/02/23 06:17:46;;;;;;;31.83;13.60;;;0.90;99.90;1.90;96532.00;;;;5069919;28;20437;-67
2023/02/23 06:20:35;;;;;;;25.37;13.53;;;0.90;99.90;1.80;96528.00;;;;5068995;28;20437;-67
2023/02/23 06:23:25;;;;;;;21.17;12.23;;;1.10;99.90;1.80;96528.00;;;;5067249;28;20503;-66
2023/02/23 06:26:14;;;;;;;23.20;13.67;;;1.00;99.90;2.10;96533.00;;;;5071439;28;20415;-65
2023/02/23 06:29:04;;;;;;;20.53;12.30;;;1.00;99.90;2.00;96539.00;;;;5060999;28;20474;-68
2023/02/23 06:31:53;;;;;;;16.87;11.10;;;1.10;99.90;1.70;96536.00;;;;5069719;28;20476;-67
2023/02/23 06:34:43;;;;;;;22.47;12.13;;;1.10;99.90;1.50;96535.00;;;;5070448;28;20426;-66
2023/02/23 06:37:32;;;;;;;19.70;12.83;;;1.00;99.90;1.70;96534.00;;;;5075040;28;20431;-67
2023/02/23 06:40:21;;;;;;;22.63;11.77;;;1.00;99.90;2.10;96543.00;;;;5058886;28;20560;-67
2023/02/23 06:43:10;;;;;;;26.17;14.23;;;1.20;99.90;2.30;96547.00;;;;5057041;28;20438;-66
2023/02/23 06:46:00;;;;;;;25.70;13.80;;;1.60;99.90;2.20;96544.00;;;;5057586;28;21177;-67
2023/02/23 06:48:49;;;;;;;22.80;13.90;;;1.30;99.90;1.90;96543.00;;;;5058510;28;20531;-65
2023/02/23 06:51:37;;;;;;;24.07;12.37;;;1.30;99.90;1.80;96539.00;;;;5057518;28;20466;-67
2023/02/23 06:54:26;;;;;;;27.27;12.87;;;1.30;99.90;2.40;96541.00;;;;5062547;28;20446;-67
2023/02/23 06:57:15;;;;;;;20.53;11.00;;;1.30;99.90;2.10;96555.00;;;;5065454;28;20485;-68
2023/02/23 07:00:05;;;;;;;24.43;12.40;;;1.40;99.90;2.80;96541.00;;;;5066787;28;20446;-66
2023/02/23 07:02:58;;;;;;;19.40;11.80;;;1.50;99.90;2.70;96552.00;;;;5065780;28;20447;-67
2023/02/23 07:05:47;;;;;;;25.60;11.93;;;1.70;99.90;2.40;96538.00;;;;5065652;28;20427;-67
2023/02/23 07:08:36;;;;;;;20.17;12.03;;;1.80;99.90;2.70;96543.00;;;;5066244;28;20549;-66
2023/02/23 07:11:24;;;;;;;27.10;11.43;;;1.70;99.90;2.80;96532.00;;;;5069155;28;20462;-67
2023/02/23 07:14:13;;;;;;;22.67;12.77;;;1.90;99.90;2.90;96545.00;;;;5062569;28;20533;-68
2023/02/23 07:17:09;;;;;;;23.30;13.10;;;2.00;99.90;2.90;96542.00;;;;5073108;28;20437;-66
2023/02/23 07:20:02;;;;;;;26.80;13.73;;;2.00;99.90;2.90;96558.00;;;;5073962;28;20525;-66
2023/02/23 07:22:51;;;;;;;21.60;13.07;;;2.00;99.90;3.10;96553.00;;;;5074437;28;20434;-66
2023/02/23 07:25:40;;;;;;;21.50;11.37;;;2.20;99.90;3.10;96546.00;;;;5065691;28;20442;-67
2023/02/23 07:28:29;;;;;;;23.63;11.93;;;2.20;99.90;3.30;96556.00;;;;5070083;28;20535;-65
2023/02/23 07:31:18;;;;;;;20.53;12.83;;;2.20;99.90;3.40;96558.00;;;;5085473;28;20417;-67
2023/02/23 07:34:08;;;;;;;25.80;12.37;;;2.30;99.90;3.30;96555.00;;;;5076462;28;20565;-68
2023/02/23 07:36:58;;;;;;;26.00;13.13;;;2.40;99.90;3.30;96565.00;;;;5058266;28;20449;-67
2023/02/23 07:39:46;;;;;;;19.27;10.73;;;2.40;99.90;3.40;96564.00;;;;5070289;28;20450;-68
2023/02/23 07:42:35;;;;;;;24.00;12.57;;;2.50;99.90;3.70;96562.00;;;;5066630;28;20423;-67
2023/02/23 07:45:24;;;;;;;24.63;13.40;;;2.60;99.90;3.70;96568.00;;;;5074197;28;20441;-67
2023/02/23 07:48:13;;;;;;;23.50;12.83;;;2.60;99.90;3.60;96567.00;;;;5067616;28;20513;-67
2023/02/23 07:51:02;;;;;;;22.07;13.23;;;2.70;99.90;3.80;96570.00;;;;5066677;28;20438;-66
2023/02/23 07:53:53;;;;;;;20.30;12.37;;;2.80;99.90;3.90;96576.00;;;;5068588;28;20480;-66
2023/02/23 07:56:41;;;;;;;22.87;13.03;;;2.90;99.90;4.10;96571.00;;;;5069854;28;20434;-67
2023/02/23 07:59:30;;;;;;;20.27;12.80;;;3.00;99.90;4.40;96581.00;;;;5068042;28;20957;-67
2023/02/23 08:02:19;;;;;;;22.47;13.27;;;3.20;99.90;4.40;96573.00;;;;5065625;28;20423;-68
2023/02/23 08:05:08;;;;;;;22.27;13.70;;;3.30;99.90;4.70;96585.00;;;;5063246;28;20464;-67
2023/02/23 08:07:58;;;;;;;22.27;13.33;;;3.40;99.90;5.20;96578.00;;;;5065979;28;20430;-67
2023/02/23 08:10:49;;;;;;;25.47;12.23;;;3.70;99.90;5.20;96581.00;;;;5067445;28;20423;-68
2023/02/23 08:13:38;;;;;;;25.30;13.43;;;3.90;99.90;5.50;96587.00;;;;5063408;28;20836;-67
2023/02/23 08:16:27;;;;;;;20.97;13.20;;;4.10;99.90;6.00;96589.00;;;;5064862;28;20801;-67
2023/02/23 08:19:16;;;;;;;18.00;13.30;;;4.50;99.90;6.10;96589.00;;;;5065492;28;20473;-67
2023/02/23 08:22:05;;;;;;;16.90;12.53;;;4.50;99.90;6.20;96578.00;;;;5066625;28;20430;-67
2023/02/23 08:24:57;;;;;;;18.27;12.97;;;4.60;99.90;6.80;96593.00;;;;5073594;28;20429;-67
2023/02/23 08:27:47;;;;;;;18.73;13.43;;;4.90;99.90;7.10;96601.00;;;;5077041;28;20728;-67
2023/02/23 08:30:36;;;;;;;23.07;13.30;;;5.10;99.90;7.20;96598.00;;;;5060819;28;20208;-68
2023/02/23 08:33:25;;;;;;;22.77;13.03;;;5.40;99.90;7.40;96607.00;;;;5066100;28;20250;-68
2023/02/23 08:36:13;;;;;;;22.40;14.10;;;5.60;99.90;7.80;96608.00;;;;5067838;28;20197;-67
2023/02/23 08:39:05;;;;;;;18.10;12.37;;;5.80;99.90;7.50;96601.00;;;;5069277;28;20690;-68
2023/02/23 08:41:54;;;;;;;17.17;12.57;;;6.00;99.90;7.10;96589.00;;;;5068114;28;20685;-66
2023/02/23 08:44:44;;;;;;;21.70;12.30;;;6.10;99.90;7.50;96600.00;;;;5065487;28;20200;-69
2023/02/23 08:47:33;;;;;;;21.60;12.80;;;6.10;99.90;8.00;96609.00;;;;5074144;28;20237;-67
2023/02/23 08:50:22;;;;;;;20.60;11.77;;;6.20;99.90;8.10;96615.00;;;;5069821;28;20869;-67
2023/02/23 08:53:11;;;;;;;21.17;11.47;;;6.40;99.90;8.20;96605.00;;;;5084341;28;20295;-66
2023/02/23 08:56:03;;;;;;;20.30;11.87;;;6.60;99.90;8.10;96597.00;;;;5058549;28;20337;-67
2023/02/23 08:58:52;;;;;;;23.20;12.07;;;6.70;99.90;8.40;96608.00;;;;5064036;28;20224;-67
2023/02/23 09:01:42;;;;;;;17.30;12.87;;;6.80;99.90;8.60;96598.00;;;;5068863;28;20694;-66
2023/02/23 09:04:34;;;;;;;17.53;11.90;;;7.00;99.90;8.70;96599.00;;;;5067078;28;20200;-66
2023/02/23 09:07:24;;;;;;;18.27;11.20;;;7.10;99.90;9.10;96608.00;;;;5076183;28;20785;-65
2023/02/23 09:10:15;;;;;;;21.80;12.23;;;7.30;99.90;8.90;96612.00;;;;5072332;28;20220;-67
2023/02/23 09:13:03;;;;;;;18.27;11.20;;;7.40;99.90;9.00;96615.00;;;;5082498;28;20360;-66
2023/02/23 09:15:53;;;;;;;21.23;12.10;;;7.50;99.90;9.00;96616.00;;;;5055220;28;20196;-67
2023/02/23 09:18:43;;;;;;;21.97;12.57;;;7.50;99.90;9.40;96609.00;;;;5067573;28;20226;-66
2023/02/23 09:21:33;;;;;;;19.77;10.47;;;7.70;99.90;9.00;96611.00;;;;5054651;28;20222;-66
2023/02/23 09:24:22;;;;;;;19.13;10.80;;;7.70;99.90;9.60;96612.00;;;;5058255;28;20211;-67
2023/02/23 09:27:11;;;;;;;27.03;14.57;;;7.80;99.90;9.20;96612.00;;;;5062493;28;20200;-66
2023/02/23 09:30:00;;;;;;;20.53;12.83;;;7.90;99.90;9.40;96619.00;;;;5087033;22;20235;-69
2023/02/23 09:32:50;;;;;;;20.33;11.03;;;7.90;99.90;9.50;96611.00;;;;5066005;28;20227;-68
2023/02/23 09:35:40;;;;;;;17.07;11.83;;;8.00;99.90;10.00;96627.00;;;;5068334;28;20265;-69
2023/02/23 09:38:29;;;;;;;21.00;13.23;;;8.10;99.90;10.20;96623.00;;;;5065573;28;20457;-68
2023/02/23 09:41:59;;;;;;;18.03;12.57;;;8.20;99.90;10.40;96626.00;;;;5065454;28;20219;-69
2023/02/23 09:45:06;;;;;;;20.30;11.90;;;8.40;99.90;10.40;96624.00;;;;5062921;28;20195;-68
2023/02/23 09:48:15;;;;;;;22.10;11.63;;;8.50;99.90;10.40;96622.00;;;;5067160;28;20207;-68
2023/02/23 09:51:10;;;;;;;24.80;10.80;;;8.60;99.90;10.50;96621.00;;;;5067706;28;20195;-69
2023/02/23 09:54:01;;;;;;;23.63;12.47;;;8.70;99.90;10.60;96620.00;;;;5066553;28;20727;-68
2023/02/23 09:56:55;;;;;;;19.73;11.33;;;8.80;99.90;10.60;96625.00;;;;5066429;28;20214;-70
2023/02/23 09:59:44;;;;;;;18.40;10.90;;;8.80;99.90;10.40;96623.00;;;;5066922;28;20211;-69
2023/02/23 10:02:38;;;;;;;20.33;12.20;;;8.90;99.90;10.30;96623.00;;;;5063485;28;20246;-69
2023/02/23 10:05:31;;;;;;;28.33;11.97;;;8.90;99.90;10.50;96616.00;;;;5067552;28;20212;-68
2023/02/23 10:08:35;;;;;;;21.53;10.77;;;8.90;99.90;10.20;96614.00;;;;5068939;28;20242;-69
2023/02/23 10:11:35;;;;;;;23.77;11.30;;;8.90;99.90;10.20;96619.00;;;;5066098;28;20196;-67
2023/02/23 10:14:49;;;;;;;18.80;12.23;;;8.80;99.90;10.30;96624.00;;;;5066700;28;20230;-68
2023/02/23 10:17:51;;;;;;;19.33;12.57;;;8.80;99.90;10.50;96621.00;;;;5063387;28;20236;-69
2023/02/23 10:20:54;;;;;;;23.47;10.70;;;8.80;99.90;10.70;96617.00;;;;5070219;28;20223;-68
2023/02/23 10:23:50;;;;;;;23.80;11.30;;;8.90;99.90;10.70;96621.00;;;;5066434;28;20191;-69
2023/02/23 10:26:46;;;;;;;18.73;10.03;;;9.00;99.90;10.60;96623.00;;;;5068044;28;20634;-69
2023/02/23 10:29:39;;;;;;;23.93;11.57;;;9.00;99.90;10.70;96622.00;;;;5064587;28;20710;-69
2023/02/23 10:32:42;;;;;;;20.53;12.10;;;9.00;99.90;10.80;96621.00;;;;5067328;28;20203;-68
2023/02/23 10:35:31;;;;;;;17.07;10.30;;;9.10;99.90;10.80;96613.00;;;;5070263;28;20199;-68
2023/02/23 10:38:20;;;;;;;26.90;12.07;;;9.10;99.90;11.10;96618.00;;;;5069548;28;20192;-68
2023/02/23 10:41:11;;;;;;;21.13;10.47;;;9.20;99.90;11.10;96602.00;;;;5070982;28;20203;-68
2023/02/23 10:44:05;;;;;;;16.13;11.60;;;9.30;99.90;11.20;96607.00;;;;5069368;28;20204;-69
2023/02/23 10:47:13;;;;;;;15.63;10.63;;;9.30;99.90;11.30;96595.00;;;;5069019;28;20687;-66
2023/02/23 10:50:05;;;;;;;17.57;10.60;;;9.40;99.90;11.40;96608.00;;;;5080124;28;20219;-68
2023/02/23 10:52:59;;;;;;;28.10;12.60;;;9.50;99.90;11.60;96593.00;;;;5076543;28;20208;-69
2023/02/23 10:56:00;;;;;;;22.63;11.67;;;9.60;99.90;11.80;96594.00;;;;5065573;28;20192;-68
2023/02/23 10:58:53;;;;;;;19.73;11.47;;;9.70;99.90;11.90;96596.00;;;;5069623;28;20265;-68
2023/02/23 11:01:44;;;;;;;18.70;11.60;;;9.90;99.90;11.90;96596.00;;;;5068764;28;20211;-68
2023/02/23 11:04:53;;;;;;;20.40;12.20;;;10.00;99.90;11.80;96596.00;;;;5063123;28;20610;-68
2023/02/23 11:07:44;;;;;;;19.00;11.43;;;10.00;99.90;12.00;96588.00;;;;5063945;28;20208;-67
2023/02/23 11:10:33;;;;;;;19.93;11.40;;;10.10;99.90;12.10;96599.00;;;;5068376;28;20607;-68
2023/02/23 11:13:27;;;;;;;20.40;11.90;;;10.20;99.90;12.00;96585.00;;;;5068108;28;20953;-68
2023/02/23 11:16:20;;;;;;;16.43;10.53;;;10.20;99.90;12.20;96584.00;;;;5067407;28;20209;-68
2023/02/23 11:19:32;;;;;;;19.43;10.20;;;10.30;99.90;12.50;96582.00;;;;5071532;28;20231;-69
2023/02/23 11:22:25;;;;;;;24.33;11.53;;;10.40;99.90;12.60;96585.00;;;;5067674;28;20208;-68
2023/02/23 11:25:20;;;;;;;16.13;11.17;;;10.50;99.90;12.70;96581.00;;;;5069484;28;20258;-68
2023/02/23 11:28:19;;;;;;;14.63;10.17;;;10.70;99.90;12.90;96571.00;;;;5068144;28;20204;-68
2023/02/23 11:31:17;;;;;;;24.13;11.30;;;10.80;99.90;12.80;96568.00;;;;5067184;28;20675;-68
2023/02/23 11:34:07;;;;;;;24.07;12.17;;;10.90;99.90;13.00;96569.00;;;;5068606;28;20244;-69
2023/02/23 11:37:03;;;;;;;17.17;10.03;;;11.00;99.90;13.00;96559.00;;;;5067597;28;20192;-68
2023/02/23 11:39:55;;;;;;;32.00;11.97;;;11.10;99.90;13.10;96563.00;;;;5063882;28;20243;-68
2023/02/23 11:42:53;;;;;;;18.43;11.03;;;11.10;99.90;13.20;96560.00;;;;5069233;28;20200;-68
2023/02/23 11:45:48;;;;;;;19.03;11.53;;;11.20;99.90;13.00;96550.00;;;;5070995;28;20204;-68
2023/02/23 11:48:49;;;;;;;19.93;12.90;;;11.20;99.90;13.30;96556.00;;;;5069734;28;20242;-68
2023/02/23 11:51:49;;;;;;;17.43;11.60;;;11.30;99.90;13.00;96553.00;;;;5070170;28;20305;-69
2023/02/23 11:54:38;;;;;;;19.07;10.87;;;11.30;99.90;13.30;96547.00;;;;5064618;28;20219;-68
2023/02/23 11:57:32;;;;;;;18.27;10.77;;;11.30;99.90;13.50;96545.00;;;;5073105;28;20253;-68
2023/02/23 12:00:27;;;;;;;26.57;11.87;;;11.40;99.90;13.50;96536.00;;;;5071114;28;20262;-68
2023/02/23 12:03:22;;;;;;;18.23;12.43;;;11.50;99.90;13.60;96547.00;;;;5069674;28;20232;-68
2023/02/23 12:06:13;;;;;;;21.63;12.03;;;11.60;99.90;13.70;96539.00;;;;5069906;28;20211;-68
2023/02/23 12:09:17;;;;;;;22.97;15.33;;;11.70;99.90;13.70;96545.00;;;;5059492;28;20642;-69
2023/02/23 12:12:11;;;;;;;20.53;13.47;;;11.70;99.90;13.60;96538.00;;;;5067363;28;20206;-69
2023/02/23 12:15:10;;;;;;;25.17;14.23;;;11.70;99.90;13.40;96537.00;;;;5062122;28;20290;-68
2023/02/23 12:18:09;;;;;;;21.20;13.60;;;11.70;99.90;13.40;96534.00;;;;5067629;28;20196;-68
2023/02/23 12:21:08;;;;;;;22.10;14.77;;;11.60;99.90;13.50;96538.00;;;;5068724;28;20208;-68
2023/02/23 12:24:12;;;;;;;23.00;13.97;;;11.60;99.90;13.40;96539.00;;;;5070127;28;20196;-69
2023/02/23 12:27:12;;;;;;;28.80;13.27;;;11.60;99.90;13.40;96527.00;;;;5071528;28;20203;-68
2023/02/23 12:30:12;;;;;;;27.93;15.03;;;11.60;99.90;13.30;96523.00;;;;5074524;28;20731;-68
2023/02/23 12:33:06;;;;;;;23.83;15.37;;;11.50;99.90;13.40;96523.00;;;;5062831;28;20563;-68
2023/02/23 12:36:00;;;;;;;22.90;15.17;;;11.50;99.90;13.30;96529.00;;;;5069652;28;20274;-68
2023/02/23 12:38:56;;;;;;;25.03;15.53;;;11.50;99.90;13.10;96525.00;;;;5068629;28;20207;-68
2023/02/23 12:41:55;;;;;;;23.23;15.10;;;11.50;99.90;13.20;96536.00;;;;5070159;28;20203;-68
2023/02/23 12:44:51;;;;;;;35.27;21.23;;;11.40;99.90;13.10;96515.00;;;;5064622;28;20281;-69
2023/02/23 12:47:47;;;;;;;31.97;20.93;;;11.40;99.90;13.10;96518.00;;;;5058025;28;20203;-69
2023/02/23 12:50:42;;;;;;;30.33;19.50;;;11.30;99.90;13.10;96514.00;;;;5068501;28;20717;-69
2023/02/23 12:53:38;;;;;;;36.50;21.17;;;11.30;99.90;13.10;96515.00;;;;5069648;28;20204;-69
2023/02/23 12:56:49;;;;;;;39.97;20.97;;;11.30;99.90;13.00;96518.00;;;;5067594;28;20238;-68
2023/02/23 13:00:29;;;;;;;31.03;18.93;;;11.30;99.90;12.80;96511.00;;;;5067924;28;20231;-69
2023/02/23 13:03:49;;;;;;;25.23;16.83;;;11.20;99.90;12.80;96514.00;;;;5078092;28;20235;-67
2023/02/23 13:06:49;;;;;;;27.47;17.93;;;11.20;99.90;12.80;96513.00;;;;5061599;28;20211;-68
2023/02/23 13:09:54;;;;;;;28.47;17.80;;;11.10;99.90;12.70;96508.00;;;;5070765;28;20227;-69
2023/02/23 13:12:56;;;;;;;27.10;18.97;;;11.10;99.90;12.70;96507.00;;;;5065927;28;20207;-68
2023/02/23 13:15:58;;;;;;;31.37;19.93;;;11.00;99.90;12.70;96503.00;;;;5063475;28;20265;-68
2023/02/23 13:19:01;;;;;;;31.60;18.80;;;11.00;99.90;12.50;96518.00;;;;5066281;28;20204;-67
2023/02/23 13:21:59;;;;;;;32.60;19.93;;;11.00;99.90;12.60;96509.00;;;;5069471;28;20200;-67
2023/02/23 13:24:49;;;;;;;29.37;18.90;;;10.90;99.90;12.70;96505.00;;;;5066301;28;20661;-68
2023/02/23 13:27:47;;;;;;;33.40;20.13;;;10.90;99.90;12.70;96511.00;;;;5068452;28;20262;-67
2023/02/23 13:30:41;;;;;;;27.80;19.10;;;10.90;99.90;12.50;96500.00;;;;5066690;28;20301;-68
2023/02/23 13:33:33;;;;;;;24.70;16.77;;;10.90;99.90;12.50;96505.00;;;;5068020;28;20204;-69
2023/02/23 13:36:34;;;;;;;27.50;16.57;;;10.90;99.90;12.50;96507.00;;;;5064022;28;20210;-68
2023/02/23 13:39:55;;;;;;;35.03;17.87;;;10.80;99.90;12.50;96508.00;;;;5053934;28;20227;-67
2023/02/23 13:42:57;;;;;;;28.63;17.73;;;10.80;99.90;12.60;96516.00;;;;5057623;28;20617;-69
2023/02/23 13:46:20;;;;;;;28.90;17.87;;;10.80;99.90;12.60;96508.00;;;;5075467;28;20198;-68
2023/02/23 13:49:27;;;;;;;30.67;19.33;;;10.80;99.90;12.30;96514.00;;;;5059699;28;20277;-68
2023/02/23 13:52:26;;;;;;;29.90;17.53;;;10.80;99.90;12.30;96517.00;;;;5073029;28;20207;-68
2023/02/23 13:55:46;;;;;;;25.13;16.67;;;10.70;99.90;12.10;96512.00;;;;5070856;28;20235;-68
2023/02/23 13:58:48;;;;;;;25.23;16.03;;;10.70;99.90;12.10;96515.00;;;;5071473;28;20203;-68
2023/02/23 14:01:42;;;;;;;26.27;15.83;;;10.60;99.90;12.20;96512.00;;;;5075574;28;20195;-68
2023/02/23 14:04:37;;;;;;;27.47;17.63;;;10.60;99.90;12.00;96507.00;;;;5067326;28;20204;-66
2023/02/23 14:07:30;;;;;;;24.57;16.93;;;10.60;99.90;12.20;96511.00;;;;5071787;28;20211;-68
2023/02/23 14:10:23;;;;;;;29.53;17.57;;;10.60;99.90;12.00;96513.00;;;;5070342;28;20234;-68